Time;durP1;ratioP1;P1;durP2;ratioP2;P2;SDS_P1;SDS_P2;PMS_P1;PMS_P2;Temp;Humidity;BMP_temperature;BMP_pressure;BME280_temperature;BME280_humidity;BME280_pressure;Samples;Min_cycle;Max_cycle;Signal;HPM_P1;HPM_P2
2023/01/01 00:23:04;;;;;;;6.95;1.50;;;;;;;13.76;71.84;100425.09;10223511;28;20279;-69
2023/01/01 00:35:50;;;;;;;2.63;1.38;;;;;;;13.57;72.58;100432.16;10345610;28;20508;-70
2023/01/01 00:40:52;;;;;;;2.38;1.25;;;;;;;13.50;72.74;100434.78;10480325;28;20115;-69
2023/01/01 00:45:53;;;;;;;3.83;1.67;;;;;;;13.58;72.49;100431.25;10481659;28;20415;-69
2023/01/01 00:50:55;;;;;;;2.55;1.30;;;;;;;13.64;72.13;100450.56;10481493;28;20713;-69
2023/01/01 00:55:56;;;;;;;3.67;1.77;;;;;;;13.56;72.62;100456.69;10480612;28;20052;-69
2023/01/01 01:00:59;;;;;;;7.78;2.03;;;;;;;13.64;72.36;100427.75;10480133;28;20040;-68
2023/01/01 01:06:03;;;;;;;7.55;1.88;;;;;;;13.74;71.95;100447.03;10480801;28;20088;-67
2023/01/01 01:11:06;;;;;;;3.50;1.83;;;;;;;13.73;71.71;100453.16;10481236;28;20061;-69
2023/01/01 01:16:10;;;;;;;4.10;1.98;;;;;;;13.64;71.82;100455.81;10481971;28;20056;-70
2023/01/01 01:21:16;;;;;;;4.97;2.03;;;;;;;13.74;71.25;100454.94;10472433;28;20048;-70
2023/01/01 01:26:26;;;;;;;4.28;2.17;;;;;;;13.60;71.52;100444.41;10479374;28;20055;-69
2023/01/01 01:31:30;;;;;;;4.60;2.33;;;;;;;13.46;72.17;100454.94;10479862;28;20075;-71
2023/01/01 01:36:32;;;;;;;5.40;2.60;;;;;;;13.50;72.20;100456.69;10480407;28;20111;-71
2023/01/01 01:41:33;;;;;;;8.13;3.22;;;;;;;13.48;72.43;100468.97;10479587;28;20543;-70
2023/01/01 01:46:43;;;;;;;8.65;4.45;;;;;;;13.52;72.43;100472.47;10480433;28;20044;-71
2023/01/01 01:51:45;;;;;;;5.45;2.45;;;;;;;13.58;72.34;100483.00;10479062;28;20064;-71
2023/01/01 01:56:53;;;;;;;7.88;2.88;;;;;;;13.64;72.26;100495.28;10480637;28;20204;-71
2023/01/01 02:01:55;;;;;;;8.77;3.65;;;;;;;13.63;72.21;100486.53;10480045;28;20060;-70
2023/01/01 02:06:56;;;;;;;9.07;2.75;;;;;;;13.68;72.39;100486.53;10479923;28;20750;-70
2023/01/01 02:11:58;;;;;;;10.02;3.28;;;;;;;13.67;72.22;100483.00;10478747;28;20139;-71
2023/01/01 02:17:08;;;;;;;11.40;3.30;;;;;;;13.68;72.15;100489.16;10479132;28;20570;-71
2023/01/01 02:22:29;;;;;;;12.32;3.75;;;;;;;13.60;72.67;100495.28;10478854;28;20059;-72
2023/01/01 02:27:57;;;;;;;11.70;2.95;;;;;;;13.55;73.00;100486.50;10474004;28;20064;-70
2023/01/01 02:33:07;;;;;;;6.53;2.67;;;;;;;13.42;73.73;100496.16;10473948;28;20062;-70
2023/01/01 02:38:31;;;;;;;6.93;2.58;;;;;;;13.20;74.64;100500.47;10505131;28;20452;-72
2023/01/01 02:43:33;;;;;;;4.20;2.08;;;;;;;12.96;76.07;100510.94;10514280;28;20052;-70
2023/01/01 02:48:49;;;;;;;8.30;3.38;;;;;;;12.87;77.22;100517.03;10503826;28;20067;-70
2023/01/01 02:54:15;;;;;;;5.13;2.42;;;;;;;12.75;77.59;100512.63;10505595;28;20060;-71
2023/01/01 03:05:23;;;;;;;7.18;2.78;;;;;;;12.75;78.08;100502.09;10504595;28;20074;-71
2023/01/01 03:10:56;;;;;;;8.05;3.15;;;;;;;12.75;78.33;100501.25;10469994;28;20103;-71
2023/01/01 03:16:25;;;;;;;5.72;1.90;;;;;;;12.70;78.66;100509.06;10453344;28;20094;-71
2023/01/01 03:21:27;;;;;;;14.18;2.92;;;;;;;12.76;78.67;100519.63;10471594;28;20055;-71
2023/01/01 03:26:30;;;;;;;7.13;1.90;;;;;;;12.86;78.53;100516.13;10450647;28;20071;-71
2023/01/01 03:31:32;;;;;;;5.93;1.90;;;;;;;12.93;78.34;100521.44;10446918;28;20056;-70
2023/01/01 03:36:42;;;;;;;5.03;2.35;;;;;;;12.95;77.69;100532.81;10449556;28;20059;-70
2023/01/01 03:42:11;;;;;;;5.35;2.33;;;;;;;12.99;77.59;100534.59;10444912;28;20473;-71
2023/01/01 03:47:14;;;;;;;4.82;1.88;;;;;;;12.97;77.08;100528.44;10462288;28;20049;-71
2023/01/01 03:52:27;;;;;;;3.35;1.48;;;;;;;12.86;77.32;100526.66;10443611;28;20049;-72
2023/01/01 03:57:54;;;;;;;2.53;1.23;;;;;;;12.85;77.18;100532.81;10442421;28;20059;-72
2023/01/01 04:03:19;;;;;;;8.00;1.85;;;;;;;12.99;76.59;100531.97;10442642;28;20760;-71
2023/01/01 04:08:21;;;;;;;1.90;1.02;;;;;;;13.04;76.10;100531.09;10475052;28;20102;-70
2023/01/01 04:13:22;;;;;;;3.20;1.40;;;;;;;13.10;75.82;100530.22;10498757;28;20048;-72
2023/01/01 04:18:24;;;;;;;3.72;1.35;;;;;;;13.15;75.22;100536.41;10511257;28;20619;-70
2023/01/01 04:23:25;;;;;;;4.85;1.65;;;;;;;13.11;75.01;100531.13;10491461;28;20071;-72
2023/01/01 04:28:27;;;;;;;3.67;1.65;;;;;;;13.16;74.61;100532.88;10500415;28;20063;-70
2023/01/01 04:33:28;;;;;;;6.03;1.17;;;;;;;13.16;74.26;100530.25;10493289;28;20048;-69
2023/01/01 04:38:32;;;;;;;7.03;1.02;;;;;;;13.18;73.77;100527.63;10512533;28;20052;-70
2023/01/01 04:43:33;;;;;;;2.15;0.88;;;;;;;13.40;72.76;100541.72;10509449;28;20531;-68
2023/01/01 04:48:35;;;;;;;1.80;0.60;;;;;;;13.40;72.08;100539.09;10510958;28;20169;-69
2023/01/01 04:53:37;;;;;;;3.22;0.57;;;;;;;13.44;71.72;100535.59;10497289;28;20045;-69
2023/01/01 04:58:40;;;;;;;1.27;0.73;;;;;;;13.47;71.57;100538.22;10513933;28;20071;-68
2023/01/01 05:03:42;;;;;;;1.20;0.57;;;;;;;13.42;71.30;100547.84;10501648;28;20054;-69
2023/01/01 05:08:45;;;;;;;2.35;0.90;;;;;;;13.42;70.96;100564.53;10492842;28;20075;-68
2023/01/01 05:13:49;;;;;;;4.05;1.15;;;;;;;13.52;70.75;100565.41;10487764;28;20040;-68
2023/01/01 05:18:52;;;;;;;0.77;0.45;;;;;;;13.52;70.53;100581.19;10517644;28;20063;-69
2023/01/01 05:23:57;;;;;;;5.45;0.75;;;;;;;13.51;70.15;100581.19;10489801;28;20060;-69
2023/01/01 05:29:00;;;;;;;1.35;0.60;;;;;;;13.43;69.98;100591.69;10511389;28;20545;-69
2023/01/01 05:34:03;;;;;;;1.88;0.90;;;;;;;13.44;69.83;100582.94;10512487;28;20067;-71
2023/01/01 05:39:10;;;;;;;2.03;0.70;;;;;;;13.39;69.65;100606.59;10504288;28;20078;-69
2023/01/01 05:44:15;;;;;;;1.35;0.65;;;;;;;13.39;69.71;100595.19;10504052;28;20052;-68
2023/01/01 05:49:16;;;;;;;1.92;0.60;;;;;;;13.38;69.47;100610.09;10495905;28;20490;-70
2023/01/01 05:54:18;;;;;;;2.92;0.70;;;;;;;13.35;69.59;100640.78;10495130;28;20519;-69
2023/01/01 05:59:18;;;;;;;1.05;0.57;;;;;;;13.33;69.21;100642.47;10502637;28;20044;-69
2023/01/01 06:04:20;;;;;;;7.35;1.20;;;;;;;13.35;69.22;100648.69;10495136;28;20469;-69
2023/01/01 06:09:22;;;;;;;2.40;0.85;;;;;;;13.32;69.20;100630.22;10514222;28;20464;-69
2023/01/01 06:14:24;;;;;;;0.80;0.73;;;;;;;13.31;68.88;100641.59;10494767;28;20052;-69
2023/01/01 06:19:25;;;;;;;1.02;0.73;;;;;;;13.31;68.95;100638.97;10498385;28;20041;-68
2023/01/01 06:24:27;;;;;;;1.55;0.68;;;;;;;13.34;68.90;100649.53;10506398;28;20518;-68
2023/01/01 06:29:34;;;;;;;0.88;0.50;;;;;;;13.26;68.66;100663.50;10495395;28;20522;-69
2023/01/01 06:34:35;;;;;;;2.40;1.20;;;;;;;13.32;68.09;100652.13;10512572;28;20051;-67
2023/01/01 06:39:37;;;;;;;0.68;0.47;;;;;;;13.27;68.46;100661.75;10514632;28;20048;-67
2023/01/01 06:44:38;;;;;;;0.75;0.30;;;;;;;13.19;68.87;100676.63;10506938;28;20131;-68
2023/01/01 06:49:40;;;;;;;1.05;0.50;;;;;;;13.12;69.15;100695.84;10515797;28;20097;-68
2023/01/01 06:54:43;;;;;;;0.90;0.50;;;;;;;13.08;69.27;100721.25;10519079;28;20048;-68
2023/01/01 06:59:45;;;;;;;1.63;0.77;;;;;;;12.97;69.50;100722.91;10502338;28;20051;-68
2023/01/01 07:04:46;;;;;;;2.63;0.50;;;;;;;12.93;69.73;100732.56;10518645;28;20044;-69
2023/01/01 07:09:48;;;;;;;2.42;0.57;;;;;;;12.93;69.54;100742.19;10512944;28;20041;-69
2023/01/01 07:14:49;;;;;;;3.63;1.13;;;;;;;12.85;69.54;100748.28;10494696;28;20044;-67
2023/01/01 07:19:51;;;;;;;0.47;0.35;;;;;;;12.80;69.99;100756.97;10490397;28;20044;-67
2023/01/01 07:24:52;;;;;;;0.73;0.40;;;;;;;12.69;70.56;100770.03;10511991;28;20625;-67
2023/01/01 07:29:54;;;;;;;1.80;0.57;;;;;;;12.67;70.54;100784.88;10501529;28;20115;-68
2023/01/01 07:34:55;;;;;;;1.38;0.30;;;;;;;12.65;70.59;100815.53;10520868;28;20060;-68
2023/01/01 07:39:57;;;;;;;1.50;0.80;;;;;;;12.67;70.38;100816.41;10509847;28;20044;-68
2023/01/01 07:44:58;;;;;;;0.93;0.47;;;;;;;12.61;69.92;100825.16;10504034;28;20059;-68
2023/01/01 07:50:00;;;;;;;1.65;0.73;;;;;;;12.65;69.28;100828.66;10494844;28;20056;-70
2023/01/01 07:55:02;;;;;;;0.45;0.30;;;;;;;12.62;69.00;100839.16;10499877;28;20098;-69
2023/01/01 08:00:04;;;;;;;1.65;0.35;;;;;;;12.54;69.27;100854.84;10516257;28;20052;-69
2023/01/01 08:05:12;;;;;;;3.00;0.47;;;;;;;12.53;68.93;100863.56;10524671;28;20056;-68
2023/01/01 08:10:15;;;;;;;0.85;0.22;;;;;;;12.52;68.66;100878.47;10508929;28;20058;-68
2023/01/01 08:15:17;;;;;;;1.95;0.60;;;;;;;12.63;67.83;100882.94;10499902;28;20059;-68
2023/01/01 08:20:18;;;;;;;1.65;0.40;;;;;;;12.61;67.70;100892.53;10515492;28;20561;-68
2023/01/01 08:25:20;;;;;;;0.30;0.20;;;;;;;12.58;67.50;100905.66;10497115;28;20094;-68
2023/01/01 08:30:21;;;;;;;0.95;0.20;;;;;;;12.63;67.06;100911.84;10490824;28;20507;-68
2023/01/01 08:35:23;;;;;;;1.80;0.60;;;;;;;12.66;66.63;100932.91;10501954;28;20529;-68
2023/01/01 08:40:24;;;;;;;0.40;0.40;;;;;;;12.66;66.34;100946.03;10489131;28;20048;-70
2023/01/01 08:45:26;;;;;;;0.30;0.30;;;;;;;12.64;66.05;100939.84;10501316;28;20056;-65
2023/01/01 08:50:28;;;;;;;1.45;0.32;;;;;;;12.59;66.35;100952.94;10492946;28;20158;-68
2023/01/01 08:55:30;;;;;;;0.50;0.40;;;;;;;12.56;66.95;100968.66;10516072;28;20051;-66
2023/01/01 09:00:31;;;;;;;0.55;0.30;;;;;;;12.55;67.22;100970.41;10506926;28;20055;-67
2023/01/01 09:05:33;;;;;;;1.20;0.60;;;;;;;12.55;67.36;100983.56;10490869;28;20144;-66
2023/01/01 09:10:34;;;;;;;0.35;0.35;;;;;;;12.51;67.41;101002.75;10495011;28;20531;-66
2023/01/01 09:15:36;;;;;;;4.70;0.70;;;;;;;12.52;66.75;101009.78;10515897;28;20182;-67
2023/01/01 09:20:38;;;;;;;2.83;0.60;;;;;;;12.52;66.42;101029.91;10517592;28;20411;-66
2023/01/01 09:25:40;;;;;;;0.30;0.30;;;;;;;12.62;65.79;101029.16;10519420;28;20525;-65
2023/01/01 09:30:41;;;;;;;3.75;0.77;;;;;;;12.52;65.45;101025.53;10504814;28;20055;-66
2023/01/01 09:35:43;;;;;;;0.30;0.20;;;;;;;12.54;64.90;101049.22;10517532;28;20526;-66
2023/01/01 09:40:53;;;;;;;1.88;0.47;;;;;;;12.56;64.50;101068.47;10503908;28;20281;-68
2023/01/01 09:46:07;;;;;;;0.10;0.10;;;;;;;12.59;64.09;101071.16;10499202;28;20416;-68
2023/01/01 09:51:15;;;;;;;0.40;0.30;;;;;;;12.54;64.08;101060.59;10501175;28;20511;-68
2023/01/01 09:56:22;;;;;;;;;;;;;;;12.55;63.96;101074.63;10502881;28;20055;-69
2023/01/01 10:01:24;;;;;;;5.70;0.75;;;;;;;12.60;63.77;101095.69;10494173;28;19927;-68
2023/01/01 10:06:32;;;;;;;0.50;0.20;;;;;;;12.57;63.41;101086.03;10478448;28;20056;-68
2023/01/01 10:12:06;;;;;;;2.55;0.45;;;;;;;12.53;63.68;101097.34;10500325;28;20716;-67
2023/01/01 10:17:37;;;;;;;1.25;0.63;;;;;;;12.60;63.60;101072.06;10512973;28;20638;-68
2023/01/01 10:22:43;;;;;;;0.20;0.20;;;;;;;12.73;63.44;101081.88;10466775;28;20052;-69
2023/01/01 10:27:58;;;;;;;1.30;0.20;;;;;;;12.81;63.41;101084.59;10497657;28;20064;-70
2023/01/01 10:33:00;;;;;;;0.10;0.10;;;;;;;12.89;63.28;101101.31;10504673;28;20048;-70
2023/01/01 10:38:03;;;;;;;0.43;0.28;;;;;;;12.86;63.17;101099.53;10487869;28;20052;-70
2023/01/01 10:43:09;;;;;;;2.25;0.30;;;;;;;12.74;63.31;101067.84;10494691;28;20048;-71
2023/01/01 10:48:20;;;;;;;1.95;0.65;;;;;;;12.60;63.51;101087.81;10509790;28;20055;-71
2023/01/01 10:53:29;;;;;;;0.63;0.30;;;;;;;12.46;63.75;101109.50;10501281;28;20209;-71
2023/01/01 10:58:45;;;;;;;0.35;0.35;;;;;;;12.45;64.16;101106.88;10447926;28;20052;-71
2023/01/01 11:04:12;;;;;;;0.40;0.30;;;;;;;12.45;64.54;101130.50;10486766;28;20059;-71
2023/01/01 11:09:19;;;;;;;0.25;0.20;;;;;;;12.44;64.78;101132.22;10500647;28;20044;-71
2023/01/01 11:14:36;;;;;;;2.10;0.20;;;;;;;12.35;65.21;101147.84;10506369;28;20056;-71
2023/01/01 11:19:40;;;;;;;0.40;0.30;;;;;;;12.26;65.75;101143.34;10499479;28;20525;-71
2023/01/01 11:25:01;;;;;;;1.35;0.38;;;;;;;12.10;66.37;101150.09;10497627;28;20048;-68
2023/01/01 11:30:17;;;;;;;0.20;0.20;;;;;;;12.04;66.72;101147.38;10490764;28;20052;-73
2023/01/01 11:35:23;;;;;;;0.40;0.20;;;;;;;12.00;67.06;101124.53;10511025;28;20060;-71
2023/01/01 11:40:32;;;;;;;1.90;0.85;;;;;;;12.01;67.18;101129.81;10500197;28;20523;-71
2023/01/01 11:45:39;;;;;;;0.83;0.17;;;;;;;12.18;67.71;101135.34;10482072;28;20052;-71
2023/01/01 11:50:50;;;;;;;1.17;0.20;;;;;;;12.46;67.62;101138.41;10495923;28;20422;-71
2023/01/01 11:56:01;;;;;;;1.48;0.30;;;;;;;12.55;67.12;101164.81;10507812;28;20102;-71
2023/01/01 12:01:07;;;;;;;0.30;0.20;;;;;;;12.60;66.93;101178.00;10486167;28;20059;-72
2023/01/01 12:06:22;;;;;;;0.00;0.00;;;;;;;12.61;66.72;101182.41;10509142;28;20062;-71
2023/01/01 12:11:50;;;;;;;0.20;0.20;;;;;;;12.54;66.90;101197.19;10506628;28;20056;-72
2023/01/01 12:16:59;;;;;;;0.80;0.50;;;;;;;12.40;67.29;101182.06;10505535;28;20579;-72
2023/01/01 12:22:00;;;;;;;0.95;0.28;;;;;;;12.17;67.62;101177.31;10512885;28;20052;-72
2023/01/01 12:27:23;;;;;;;1.42;0.80;;;;;;;12.04;68.04;101184.13;10509826;28;20057;-72
2023/01/01 12:32:43;;;;;;;0.20;0.20;;;;;;;11.95;68.64;101168.19;10509773;28;20044;-72
2023/01/01 12:38:09;;;;;;;2.13;0.90;;;;;;;11.90;69.02;101190.81;10515360;28;20052;-73
2023/01/01 12:43:16;;;;;;;1.77;0.45;;;;;;;11.83;69.41;101201.19;10508557;28;20052;-72
2023/01/01 12:48:44;;;;;;;3.58;0.25;;;;;;;11.82;69.83;101202.03;10503885;28;20052;-74
2023/01/01 12:54:04;;;;;;;4.80;0.45;;;;;;;11.76;70.11;101198.44;10501762;28;20056;-72
2023/01/01 12:59:16;;;;;;;4.95;2.22;;;;;;;11.77;70.34;101201.09;10515834;28;20468;-72
2023/01/01 13:04:19;;;;;;;4.20;1.50;;;;;;;11.76;70.53;101209.81;10500565;28;20612;-71
2023/01/01 13:09:24;;;;;;;6.50;1.70;;;;;;;11.70;70.91;101209.69;10486311;28;20046;-71
2023/01/01 13:14:26;;;;;;;2.55;0.60;;;;;;;11.62;71.08;101225.28;10504288;28;20513;-72
2023/01/01 13:19:33;;;;;;;1.25;0.60;;;;;;;11.63;71.40;101229.69;10512890;28;20053;-72
2023/01/01 13:24:35;;;;;;;0.35;0.20;;;;;;;11.61;71.51;101228.75;10501097;28;20165;-71
2023/01/01 13:29:42;;;;;;;1.52;0.70;;;;;;;11.59;71.87;101222.59;10510838;28;20703;-71
2023/01/01 13:35:01;;;;;;;3.50;0.63;;;;;;;11.57;72.07;101212.94;10509419;28;20064;-70
2023/01/01 13:40:24;;;;;;;1.45;0.73;;;;;;;11.58;72.24;101215.56;10994514;22;20071;-81
2023/01/01 13:45:44;;;;;;;1.17;0.50;;;;;;;11.58;72.50;101212.09;10494606;28;20041;-82
2023/01/01 13:51:20;;;;;;;2.83;0.80;;;;;;;11.53;72.80;101222.47;10524148;28;20056;-82
2023/01/01 13:56:59;;;;;;;1.80;0.60;;;;;;;11.45;73.39;101235.44;10526656;28;20283;-83
2023/01/01 14:02:27;;;;;;;0.35;0.35;;;;;;;11.53;73.54;101235.59;10527761;28;20576;-82
2023/01/01 14:07:34;;;;;;;0.80;0.25;;;;;;;11.47;73.79;101246.84;10499435;28;20532;-81
2023/01/01 14:13:00;;;;;;;5.50;0.40;;;;;;;11.43;74.01;101236.25;10525068;28;20469;-82
2023/01/01 14:18:15;;;;;;;0.63;0.27;;;;;;;11.39;74.57;101248.41;10515720;28;20112;-81
2023/01/01 14:23:29;;;;;;;4.47;0.45;;;;;;;11.30;74.84;101253.47;10526614;28;20048;-81
2023/01/01 14:28:33;;;;;;;4.75;0.50;;;;;;;11.23;75.27;101251.53;10516314;28;20119;-82
2023/01/01 14:33:34;;;;;;;6.75;1.20;;;;;;;11.14;75.90;101262.75;10553971;28;20043;-81
2023/01/01 14:38:43;;;;;;;1.05;0.50;;;;;;;11.14;76.40;101258.38;10502031;28;20244;-80
2023/01/01 14:43:48;;;;;;;1.30;0.50;;;;;;;11.08;76.45;101262.56;10515887;28;20051;-81
2023/01/01 14:48:53;;;;;;;0.90;0.40;;;;;;;11.05;76.92;101281.75;10532549;28;20603;-80
2023/01/01 14:53:58;;;;;;;0.65;0.32;;;;;;;11.02;77.17;101300.03;10482950;28;20040;-81
2023/01/01 14:59:30;;;;;;;1.10;0.50;;;;;;;11.02;77.75;101312.22;10531198;28;20550;-81
2023/01/01 15:04:31;;;;;;;5.95;0.90;;;;;;;11.07;78.11;101313.25;10502155;28;20442;-82
2023/01/01 15:09:33;;;;;;;0.75;0.50;;;;;;;11.07;78.42;101321.97;10509227;28;20114;-80
2023/01/01 15:14:38;;;;;;;0.50;0.43;;;;;;;11.06;78.85;101329.81;10531796;28;20101;-81
2023/01/01 15:19:42;;;;;;;3.65;0.70;;;;;;;10.97;79.19;101330.47;10533353;28;20422;-81
2023/01/01 15:24:44;;;;;;;1.65;0.85;;;;;;;10.94;79.66;101319.91;10522282;28;20135;-79
2023/01/01 15:29:46;;;;;;;3.47;1.35;;;;;;;10.96;80.04;101299.88;10518343;28;20091;-81
2023/01/01 15:34:50;;;;;;;2.95;0.77;;;;;;;10.93;80.39;101307.69;10521087;28;20053;-81
2023/01/01 15:39:55;;;;;;;2.05;0.60;;;;;;;10.86;80.79;101306.63;10516032;28;20052;-81
2023/01/01 15:45:12;;;;;;;2.85;1.58;;;;;;;10.82;81.21;101303.91;10539228;28;20091;-81
2023/01/01 15:50:31;;;;;;;4.18;0.95;;;;;;;10.77;81.69;101311.66;10532556;28;20117;-80
2023/01/01 16:03:05;;;;;;;;;;;;;;;;;;;;;
2023/01/01 16:14:31;;;;;;;4.07;0.77;;;;;;;10.65;83.48;101290.41;10412668;23;20153;-86
2023/01/01 16:20:00;;;;;;;4.40;1.70;;;;;;;10.67;83.76;101304.41;10372577;28;20800;-86
2023/01/01 16:25:50;;;;;;;2.85;1.30;;;;;;;10.68;83.95;101296.59;10385223;28;20072;-86
2023/01/01 16:31:20;;;;;;;1.00;0.80;;;;;;;10.64;84.19;101318.28;10410935;28;20053;-85
2023/01/01 16:36:22;;;;;;;1.50;0.80;;;;;;;10.67;84.32;101310.50;10388205;28;20062;-84
2023/01/01 16:41:27;;;;;;;1.60;0.80;;;;;;;10.68;84.55;101311.44;10399178;28;20102;-86
2023/01/01 16:47:04;;;;;;;3.58;1.35;;;;;;;10.61;84.60;101329.59;10396552;28;20057;-86
2023/01/01 16:52:11;;;;;;;3.57;1.07;;;;;;;10.60;84.71;101332.19;10448586;28;20080;-86
2023/01/01 16:57:17;;;;;;;1.60;0.82;;;;;;;10.60;84.83;101334.81;10453385;28;20068;-85
2023/01/01 17:02:48;;;;;;;1.30;0.70;;;;;;;10.63;84.94;101329.66;10431669;28;20042;-85
2023/01/01 17:07:55;;;;;;;1.92;1.08;;;;;;;10.61;84.90;101321.75;10429098;28;20052;-86
2023/01/01 17:13:10;;;;;;;6.68;0.98;;;;;;;10.61;84.91;101323.47;10392298;28;20049;-85
2023/01/01 17:18:24;;;;;;;2.15;0.90;;;;;;;10.59;84.87;101330.41;10353026;28;20042;-87
2023/01/01 17:23:46;;;;;;;1.02;0.57;;;;;;;10.56;85.02;101323.34;10346024;28;20050;-85
2023/01/01 17:28:50;;;;;;;7.15;0.80;;;;;;;10.53;84.97;101328.50;10379809;28;20053;-84
2023/01/01 17:34:27;;;;;;;1.75;0.85;;;;;;;10.53;85.16;101327.63;10412024;28;20055;-86
2023/01/01 17:39:31;;;;;;;1.23;0.70;;;;;;;10.46;85.04;101316.09;10405223;28;20093;-85
2023/01/01 17:44:35;;;;;;;0.77;0.50;;;;;;;10.42;84.90;101302.06;10399430;28;20099;-84
2023/01/01 17:49:38;;;;;;;2.38;1.20;;;;;;;10.41;85.03;101305.50;10395136;28;20041;-85
2023/01/01 17:54:40;;;;;;;1.23;0.80;;;;;;;10.38;84.82;101297.56;10384047;28;20061;-85
2023/01/01 17:59:42;;;;;;;0.57;0.50;;;;;;;10.38;84.92;101300.19;10409276;28;20397;-86
2023/01/01 18:04:46;;;;;;;1.15;0.90;;;;;;;10.30;84.92;101304.31;10415581;28;20053;-84
2023/01/01 18:09:49;;;;;;;0.85;0.60;;;;;;;10.26;85.00;101310.31;10407847;28;20041;-84
2023/01/01 18:14:51;;;;;;;4.03;0.80;;;;;;;10.26;85.12;101310.31;10430181;28;20041;-85
2023/01/01 18:19:53;;;;;;;1.08;0.77;;;;;;;10.28;85.12;101300.75;10424756;28;20108;-84
2023/01/01 18:24:54;;;;;;;2.45;0.95;;;;;;;10.29;85.20;101296.44;10441334;28;20611;-85
2023/01/01 18:29:56;;;;;;;1.92;0.95;;;;;;;10.28;85.15;101290.28;10429662;28;20057;-85
2023/01/01 18:34:58;;;;;;;1.60;0.73;;;;;;;10.26;85.08;101292.88;10442769;28;20053;-85
2023/01/01 18:40:00;;;;;;;5.03;1.58;;;;;;;10.23;85.26;101287.56;10453750;28;20064;-85
2023/01/01 18:45:20;;;;;;;3.90;1.55;;;;;;;10.20;85.33;101291.84;10449432;28;20056;-84
2023/01/01 18:50:26;;;;;;;6.82;2.70;;;;;;;10.13;85.25;101280.28;10428515;28;20060;-85
2023/01/01 18:55:29;;;;;;;3.17;1.70;;;;;;;10.04;85.41;101294.03;10446623;28;20133;-85
2023/01/01 19:00:34;;;;;;;3.05;1.67;;;;;;;10.06;85.69;101289.72;10409664;28;20076;-86
2023/01/01 19:05:37;;;;;;;6.13;1.88;;;;;;;10.04;85.80;101269.59;10431843;28;20140;-86
2023/01/01 19:10:41;;;;;;;3.45;1.42;;;;;;;10.01;86.02;101267.81;10413525;28;20128;-86
2023/01/01 19:16:07;;;;;;;3.10;1.35;;;;;;;9.99;86.00;101272.09;10443705;28;20045;-86
2023/01/01 19:21:12;;;;;;;3.47;1.58;;;;;;;9.96;86.34;101272.00;10469042;28;20097;-86
2023/01/01 19:26:24;;;;;;;4.10;1.55;;;;;;;9.96;86.49;101260.66;10463866;28;20055;-86
2023/01/01 19:31:27;;;;;;;4.25;1.77;;;;;;;9.96;86.65;101243.22;10441618;28;20044;-86
2023/01/01 19:36:31;;;;;;;6.00;1.42;;;;;;;9.98;87.05;101233.66;10419566;28;20045;-86
2023/01/01 19:41:34;;;;;;;2.83;1.30;;;;;;;9.96;86.93;101245.84;10428866;28;20041;-84
2023/01/01 19:46:36;;;;;;;5.47;1.50;;;;;;;9.95;86.92;101230.97;10400354;28;20127;-85
2023/01/01 19:51:38;;;;;;;3.30;1.13;;;;;;;9.96;87.17;101232.75;10420627;28;20160;-85
2023/01/01 19:56:39;;;;;;;2.42;1.10;;;;;;;9.97;87.01;101238.88;10425117;28;20085;-85
2023/01/01 20:01:41;;;;;;;3.47;0.82;;;;;;;9.94;87.15;101226.63;10419119;28;20389;-85
2023/01/01 20:06:43;;;;;;;2.05;1.10;;;;;;;9.92;87.11;101223.06;10431123;28;20052;-86
2023/01/01 20:11:45;;;;;;;4.65;1.40;;;;;;;9.97;87.31;101216.22;10413578;28;20100;-85
2023/01/01 20:16:52;;;;;;;2.72;1.10;;;;;;;10.08;87.15;101214.75;10409777;28;20041;-86
2023/01/01 20:27:25;;;;;;;2.08;0.77;;;;;;;10.26;86.29;101192.53;10403187;28;20049;-87
2023/01/01 20:32:28;;;;;;;0.82;0.68;;;;;;;10.32;85.80;101203.16;10413886;28;20041;-85
2023/01/01 20:37:35;;;;;;;1.02;0.63;;;;;;;10.30;85.58;101215.31;10414029;28;20050;-85
2023/01/01 20:42:37;;;;;;;3.53;0.90;;;;;;;10.31;85.08;101213.59;10401009;28;20045;-85
2023/01/01 20:47:39;;;;;;;2.53;0.90;;;;;;;10.37;84.76;101226.84;10429379;28;20053;-86
2023/01/01 20:52:41;;;;;;;1.30;0.90;;;;;;;10.42;84.47;101235.72;10425927;28;20048;-85
2023/01/01 20:57:44;;;;;;;2.55;1.00;;;;;;;10.43;83.94;101238.38;10419002;28;20096;-85
2023/01/01 21:02:47;;;;;;;2.50;0.93;;;;;;;10.43;84.05;101224.38;10382542;28;20128;-86
2023/01/01 21:07:49;;;;;;;1.92;0.90;;;;;;;10.44;84.20;101236.63;10410632;28;20077;-86
2023/01/01 21:12:52;;;;;;;3.15;0.90;;;;;;;10.36;84.75;101232.97;10401799;28;20045;-87
2023/01/01 21:18:11;;;;;;;1.90;0.93;;;;;;;10.26;85.45;101234.41;10417119;28;20057;-87
2023/01/01 21:31:00;;;;;;;0.82;0.60;;;;;;;9.97;87.32;101225.78;10381773;28;20531;-87
2023/01/01 22:59:56;;;;;;;2.40;1.40;;;;;;;9.26;94.47;101086.19;11719077;23;20046;-88
2023/01/01 23:04:58;;;;;;;4.95;2.08;;;;;;;9.22;94.83;101059.94;10321774;28;20077;-86
2023/01/01 23:10:01;;;;;;;1.80;1.15;;;;;;;9.17;95.07;101062.44;10340659;28;20062;-87
2023/01/01 23:20:23;;;;;;;2.13;1.55;;;;;;;9.12;95.64;101043.16;10323961;28;20058;-86
2023/01/01 23:25:27;;;;;;;2.58;0.70;;;;;;;9.08;95.94;101033.47;10320342;28;20121;-85
2023/01/01 23:30:29;;;;;;;1.45;0.93;;;;;;;9.03;96.03;101021.16;10324535;28;20136;-86
2023/01/01 23:35:31;;;;;;;1.83;0.90;;;;;;;9.05;96.47;101010.75;10322346;28;20046;-86
2023/01/01 23:40:37;;;;;;;2.90;1.52;;;;;;;9.11;96.75;101004.81;10306789;28;20058;-87
2023/01/01 23:45:44;;;;;;;1.83;1.10;;;;;;;9.13;96.90;100993.56;10321848;28;20053;-87
2023/01/01 23:50:47;;;;;;;5.15;1.45;;;;;;;9.15;97.22;100980.53;10330392;28;20046;-86
2023/01/01 23:55:50;;;;;;;2.10;1.20;;;;;;;9.16;97.19;100961.41;10333451;28;20046;-86
